Time;durP1;ratioP1;P1;durP2;ratioP2;P2;SDS_P1;SDS_P2;PMS_P1;PMS_P2;Temp;Humidity;BMP_temperature;BMP_pressure;BME280_temperature;BME280_humidity;BME280_pressure;Samples;Min_cycle;Max_cycle;Signal;HPM_P1;HPM_P2
2022/10/12 00:02:03;;;;;;;19.67;4.23;;;6.20;1.00;;;;;;5081395;28;20420;-78
2022/10/12 00:14:35;;;;;;;6.40;3.27;;;6.10;1.00;;;;;;5074321;28;20761;-79
2022/10/12 00:20:23;;;;;;;20.03;4.10;;;6.10;1.00;;;;;;5083443;28;20420;-78
2022/10/12 00:23:15;;;;;;;8.93;3.40;;;6.10;1.00;;;;;;5089439;28;20414;-79
2022/10/12 00:26:27;;;;;;;16.13;3.83;;;6.10;1.00;;;;;;5089270;28;20183;-79
2022/10/12 00:32:39;;;;;;;7.27;3.87;;;6.10;1.00;;;;;;5074599;28;20424;-88
2022/10/12 00:35:09;;;;;;;10.80;4.13;;;6.10;1.00;;;;;;5088875;28;20941;-87
2022/10/12 00:45:09;;;;;;;14.50;4.67;;;6.10;1.00;;;;;;5074517;28;20409;-87
2022/10/12 00:51:00;;;;;;;24.03;4.80;;;6.10;1.00;;;;;;5079455;28;20469;-88
2022/10/12 00:57:00;;;;;;;13.03;4.20;;;6.10;1.00;;;;;;5074313;28;20396;-88
2022/10/12 01:09:32;;;;;;;8.83;3.53;;;6.00;1.00;;;;;;5087663;28;20789;-87
2022/10/12 01:11:58;;;;;;;12.77;3.90;;;6.10;1.00;;;;;;5077398;28;20453;-87
2022/10/12 01:14:24;;;;;;;12.13;3.17;;;6.00;1.00;;;;;;5088041;28;20436;-80
2022/10/12 01:17:39;;;;;;;12.47;3.67;;;6.00;1.00;;;;;;5073057;28;20425;-78
2022/10/12 01:20:51;;;;;;;16.67;3.57;;;6.00;1.00;;;;;;5078667;28;20427;-79
2022/10/12 01:24:03;;;;;;;9.23;3.73;;;6.00;1.00;;;;;;5088132;28;20400;-79
2022/10/12 01:27:15;;;;;;;10.03;3.70;;;6.00;1.00;;;;;;5094018;28;20440;-79
2022/10/12 01:33:28;;;;;;;16.10;4.10;;;5.90;1.00;;;;;;5093413;28;20411;-87
2022/10/12 01:36:39;;;;;;;13.40;4.20;;;5.90;1.00;;;;;;4983462;28;20432;-88
2022/10/12 01:39:23;;;;;;;13.00;3.87;;;5.90;1.00;;;;;;4999868;28;20504;-88
2022/10/12 01:46:03;;;;;;;15.53;3.43;;;5.90;1.00;;;;;;5015665;28;20518;-87
2022/10/12 01:48:28;;;;;;;5.90;3.20;;;5.90;1.00;;;;;;5014961;28;20430;-87
2022/10/12 02:01:57;;;;;;;6.77;2.87;;;5.80;1.00;;;;;;5013737;28;20419;-80
2022/10/12 02:11:11;;;;;;;10.20;3.60;;;5.80;1.00;;;;;;5014439;28;20414;-79
2022/10/12 02:17:10;;;;;;;12.10;3.70;;;5.80;1.00;;;;;;5089880;28;20497;-79
2022/10/12 02:20:21;;;;;;;10.27;3.73;;;5.80;1.00;;;;;;5096145;28;20452;-79
2022/10/12 02:23:15;;;;;;;16.57;4.03;;;5.80;1.00;;;;;;5085913;28;20420;-79
2022/10/12 02:29:08;;;;;;;16.03;3.83;;;5.80;1.00;;;;;;5084410;28;20476;-78
2022/10/12 02:32:15;;;;;;;8.63;3.43;;;5.80;1.00;;;;;;5097352;28;20381;-88
2022/10/12 02:38:27;;;;;;;8.57;3.73;;;5.70;1.00;;;;;;5080927;28;20492;-88
2022/10/12 02:41:18;;;;;;;15.33;3.60;;;5.80;1.00;;;;;;5075536;28;20421;-88
2022/10/12 02:44:00;;;;;;;8.63;3.80;;;5.70;1.00;;;;;;5075904;28;20479;-88
2022/10/12 02:46:29;;;;;;;8.90;3.47;;;5.70;1.00;;;;;;5085218;28;20992;-79
2022/10/12 02:53:08;;;;;;;12.60;3.87;;;5.70;1.00;;;;;;5080351;28;21313;-79
2022/10/12 03:02:18;;;;;;;9.27;3.60;;;5.70;1.00;;;;;;5076144;28;20369;-88
2022/10/12 03:05:21;;;;;;;8.57;3.07;;;5.70;1.00;;;;;;5087757;28;20432;-88
2022/10/12 03:11:11;;;;;;;6.63;3.67;;;5.70;1.00;;;;;;5083923;28;20450;-88
2022/10/12 03:14:34;;;;;;;9.50;3.20;;;5.70;1.00;;;;;;5087083;28;20412;-88
2022/10/12 03:17:09;;;;;;;10.17;3.27;;;5.70;1.00;;;;;;5085504;28;20420;-80
2022/10/12 03:23:15;;;;;;;9.43;3.50;;;5.60;1.00;;;;;;5092468;28;20412;-79
2022/10/12 03:29:02;;;;;;;14.63;3.50;;;5.50;1.00;;;;;;5088437;28;20443;-79
2022/10/12 03:35:04;;;;;;;9.80;4.20;;;5.50;1.00;;;;;;5084086;28;20387;-88
2022/10/12 03:47:36;;;;;;;9.23;3.67;;;5.50;1.00;;;;;;5085196;28;20409;-89
2022/10/12 03:50:09;;;;;;;8.10;3.43;;;5.40;1.00;;;;;;5081833;28;20920;-89
2022/10/12 03:53:21;;;;;;;10.73;3.50;;;5.40;1.00;;;;;;5083166;28;20478;-88
2022/10/12 03:59:08;;;;;;;7.45;3.47;;;5.40;1.00;;;;;;5075010;28;20467;-86
2022/10/12 04:04:56;;;;;;;9.37;3.83;;;5.30;1.00;;;;;;5087586;28;20180;-76
2022/10/12 04:07:22;;;;;;;11.97;4.83;;;5.30;1.00;;;;;;5074245;28;20429;-74
2022/10/12 04:09:47;;;;;;;9.60;3.97;;;5.30;1.00;;;;;;5074519;28;20175;-74
2022/10/12 04:12:15;;;;;;;10.67;3.70;;;5.30;1.00;;;;;;5077939;28;20178;-74
2022/10/12 04:15:03;;;;;;;9.27;3.53;;;5.30;1.00;;;;;;5085284;28;20182;-74
2022/10/12 04:17:29;;;;;;;10.43;3.47;;;5.20;1.00;;;;;;5082644;28;20429;-74
2022/10/12 04:20:51;;;;;;;9.97;3.83;;;5.20;1.00;;;;;;5080812;28;20457;-76
2022/10/12 04:23:16;;;;;;;8.27;3.27;;;5.20;1.00;;;;;;5094055;28;20409;-75
2022/10/12 04:25:51;;;;;;;11.40;3.53;;;5.20;1.00;;;;;;5097514;28;20517;-75
2022/10/12 04:28:21;;;;;;;9.25;3.95;;;5.10;1.00;;;;;;5107191;28;20177;-75
2022/10/12 04:30:51;;;;;;;9.38;3.15;;;5.10;1.00;;;;;;5079452;28;20544;-74
2022/10/12 04:33:21;;;;;;;10.03;3.70;;;5.10;1.00;;;;;;5078581;28;20637;-76
2022/10/12 04:35:47;;;;;;;16.90;4.20;;;5.10;1.00;;;;;;5086881;28;20493;-75
2022/10/12 04:38:12;;;;;;;10.50;3.90;;;5.10;1.00;;;;;;5074018;28;20489;-75
2022/10/12 04:44:00;;;;;;;12.63;4.47;;;5.20;1.00;;;;;;5082724;28;20194;-75
2022/10/12 04:46:33;;;;;;;12.70;4.37;;;5.10;1.00;;;;;;5086876;28;20409;-75
2022/10/12 04:49:03;;;;;;;9.17;4.03;;;5.10;1.00;;;;;;5082351;28;20428;-75
2022/10/12 04:51:39;;;;;;;21.17;4.40;;;5.10;1.00;;;;;;5075377;28;20433;-74
2022/10/12 04:54:05;;;;;;;13.63;3.80;;;5.10;1.00;;;;;;5073477;28;20507;-74
2022/10/12 04:56:39;;;;;;;19.33;4.33;;;5.10;1.00;;;;;;5076636;28;20499;-74
2022/10/12 04:59:05;;;;;;;15.90;4.27;;;5.10;1.00;;;;;;5073660;28;20195;-74
2022/10/12 05:01:39;;;;;;;12.83;4.50;;;5.10;1.00;;;;;;5084946;28;20473;-75
2022/10/12 05:04:39;;;;;;;14.90;4.30;;;5.10;1.00;;;;;;5074620;28;20501;-74
2022/10/12 05:07:27;;;;;;;21.05;4.10;;;5.10;1.00;;;;;;5081099;28;20428;-75
2022/10/12 05:09:53;;;;;;;6.50;3.80;;;5.10;1.00;;;;;;5090284;28;20178;-75
2022/10/12 05:12:21;;;;;;;17.37;4.07;;;5.10;1.00;;;;;;5083192;28;20432;-75
2022/10/12 05:15:03;;;;;;;20.10;4.40;;;5.00;1.00;;;;;;5073336;28;20570;-75
2022/10/12 05:17:29;;;;;;;9.00;4.30;;;5.10;1.00;;;;;;5077524;28;20179;-74
2022/10/12 05:20:03;;;;;;;18.40;4.80;;;5.10;1.00;;;;;;5090453;28;20496;-75
2022/10/12 05:22:39;;;;;;;13.53;4.63;;;5.10;1.00;;;;;;5079436;28;20218;-75
2022/10/12 05:25:06;;;;;;;14.73;4.53;;;5.10;1.00;;;;;;5082623;28;20527;-75
2022/10/12 05:27:39;;;;;;;15.23;5.13;;;5.10;1.00;;;;;;5073535;28;20780;-74
2022/10/12 05:30:22;;;;;;;14.10;4.15;;;5.20;1.00;;;;;;5084424;28;20432;-74
2022/10/12 05:32:48;;;;;;;14.07;4.17;;;5.20;1.00;;;;;;5082872;28;20175;-73
2022/10/12 05:35:15;;;;;;;7.77;4.70;;;5.30;1.00;;;;;;5088039;28;20416;-74
2022/10/12 05:37:45;;;;;;;15.93;5.00;;;5.40;1.00;;;;;;5093541;28;20389;-83
2022/10/12 05:43:33;;;;;;;15.67;4.43;;;5.50;1.00;;;;;;5072388;28;20533;-71
2022/10/12 05:45:59;;;;;;;14.00;4.47;;;5.60;1.00;;;;;;5075406;28;20983;-71
2022/10/12 05:48:51;;;;;;;15.73;5.00;;;5.60;1.00;;;;;;5075324;28;20171;-76
2022/10/12 05:51:16;;;;;;;16.63;4.57;;;5.60;1.00;;;;;;5083750;28;20412;-71
2022/10/12 05:53:42;;;;;;;22.10;5.90;;;5.70;1.00;;;;;;5085086;28;20450;-83
2022/10/12 05:56:21;;;;;;;18.43;4.73;;;5.70;1.00;;;;;;5086443;28;20175;-85
2022/10/12 05:58:47;;;;;;;12.33;5.83;;;5.70;1.00;;;;;;5078979;28;20194;-73
2022/10/12 06:01:13;;;;;;;18.50;5.80;;;5.70;1.00;;;;;;5074570;28;21043;-70
2022/10/12 06:03:39;;;;;;;19.03;5.90;;;5.70;1.00;;;;;;5089936;28;20179;-72
2022/10/12 06:06:05;;;;;;;17.20;5.00;;;5.80;1.00;;;;;;5074318;28;20437;-72
2022/10/12 06:15:15;;;;;;;10.67;5.00;;;6.00;1.00;;;;;;5079330;28;20482;-81
2022/10/12 06:17:51;;;;;;;20.33;5.90;;;6.00;1.00;;;;;;5078305;28;20447;-81
2022/10/12 06:20:33;;;;;;;22.77;5.83;;;6.10;1.00;;;;;;5077723;28;20531;-81
2022/10/12 06:23:15;;;;;;;12.97;5.67;;;6.20;1.00;;;;;;5086874;28;20829;-75
2022/10/12 06:25:41;;;;;;;12.20;5.20;;;6.20;1.00;;;;;;5086037;28;20432;-75
2022/10/12 06:28:16;;;;;;;25.20;5.67;;;6.30;1.00;;;;;;5076744;28;20738;-75
2022/10/12 06:30:59;;;;;;;14.83;5.50;;;6.40;1.00;;;;;;5076188;28;20424;-75
2022/10/12 06:33:27;;;;;;;28.00;5.60;;;6.50;1.00;;;;;;5077177;28;20406;-74
2022/10/12 06:35:57;;;;;;;21.37;6.60;;;6.60;1.00;;;;;;5081630;28;20420;-75
2022/10/12 06:38:33;;;;;;;17.30;6.00;;;6.70;1.00;;;;;;5088774;28;20458;-75
2022/10/12 06:41:03;;;;;;;19.90;6.53;;;6.80;1.00;;;;;;5090632;28;20916;-75
2022/10/12 06:43:29;;;;;;;12.23;5.53;;;6.90;1.00;;;;;;5076293;28;20424;-75
2022/10/12 06:46:15;;;;;;;21.97;5.70;;;7.10;1.00;;;;;;5092181;28;20417;-75
2022/10/12 06:48:41;;;;;;;21.90;6.23;;;7.30;1.00;;;;;;5081364;28;20171;-75
2022/10/12 06:51:21;;;;;;;13.27;5.67;;;7.40;1.00;;;;;;5081581;28;20832;-75
2022/10/12 06:53:55;;;;;;;16.23;5.00;;;7.60;1.00;;;;;;5076011;28;20549;-75
2022/10/12 07:00:09;;;;;;;16.27;5.33;;;8.00;1.00;;;;;;5074767;28;20526;-88
2022/10/12 07:06:13;;;;;;;9.20;4.43;;;8.40;1.00;;;;;;5076445;28;20938;-78
2022/10/12 07:12:36;;;;;;;14.67;4.77;;;8.70;1.00;;;;;;5080188;28;20477;-79
2022/10/12 07:15:27;;;;;;;13.90;4.40;;;8.80;1.00;;;;;;5084357;28;20427;-79
2022/10/12 07:21:33;;;;;;;10.03;3.37;;;9.10;1.00;;;;;;5087759;28;20396;-78
2022/10/12 07:24:35;;;;;;;14.63;4.03;;;9.20;1.00;;;;;;5084250;28;20443;-78
2022/10/12 07:27:33;;;;;;;9.80;4.17;;;9.30;1.00;;;;;;5077274;28;20436;-78
2022/10/12 07:30:27;;;;;;;13.20;3.90;;;9.30;1.00;;;;;;5081320;28;20462;-78
2022/10/12 07:36:43;;;;;;;9.07;3.57;;;9.50;1.00;;;;;;5081596;28;20384;-79
2022/10/12 07:39:09;;;;;;;11.20;4.17;;;9.50;1.00;;;;;;5075152;28;20505;-79
2022/10/12 07:41:52;;;;;;;6.50;3.40;;;9.50;1.00;;;;;;5081082;28;20516;-78
2022/10/12 07:44:33;;;;;;;6.90;3.90;;;9.60;1.00;;;;;;5091497;28;20420;-78
2022/10/12 07:47:51;;;;;;;12.93;4.33;;;9.60;1.00;;;;;;5085979;28;20411;-78
2022/10/12 07:50:57;;;;;;;8.90;3.57;;;9.60;1.00;;;;;;5086956;28;20411;-79
2022/10/12 07:54:03;;;;;;;15.50;4.37;;;9.70;1.00;;;;;;5091288;28;20432;-78
2022/10/12 07:57:03;;;;;;;8.70;3.40;;;9.80;1.00;;;;;;5078449;28;20434;-82
2022/10/12 08:00:03;;;;;;;13.43;4.87;;;9.80;1.00;;;;;;5083487;28;20669;-79
2022/10/12 08:06:22;;;;;;;29.63;4.10;;;9.90;1.00;;;;;;5084811;28;20461;-78
2022/10/12 08:08:52;;;;;;;17.43;5.07;;;10.00;1.00;;;;;;5094321;28;20408;-78
2022/10/12 08:11:39;;;;;;;9.87;4.73;;;10.00;1.00;;;;;;5086041;28;20459;-79
2022/10/12 08:17:33;;;;;;;19.23;4.33;;;10.20;1.00;;;;;;5075858;28;20404;-81
2022/10/12 08:19:59;;;;;;;16.97;4.87;;;10.30;1.00;;;;;;5078395;28;21143;-79
2022/10/12 08:22:33;;;;;;;12.33;4.20;;;10.30;1.00;;;;;;5077047;28;20457;-78
2022/10/12 08:25:04;;;;;;;16.83;4.97;;;10.50;1.00;;;;;;5079796;28;21058;-78
2022/10/12 08:28:09;;;;;;;17.57;4.67;;;10.60;1.00;;;;;;5087394;28;20937;-79
2022/10/12 08:31:07;;;;;;;17.53;4.60;;;10.70;1.00;;;;;;5070514;28;20962;-79
2022/10/12 08:34:03;;;;;;;9.60;4.33;;;10.70;1.00;;;;;;5081492;28;21011;-78
2022/10/12 08:36:29;;;;;;;9.50;4.70;;;10.90;1.00;;;;;;5090599;28;20489;-79
2022/10/12 08:42:54;;;;;;;7.60;4.20;;;11.20;1.00;;;;;;5084773;28;20504;-78
2022/10/12 08:48:56;;;;;;;11.40;4.73;;;11.50;1.00;;;;;;5078326;28;20424;-86
2022/10/12 08:54:45;;;;;;;9.33;4.90;;;11.70;1.00;;;;;;5090847;28;20391;-87
2022/10/12 09:01:20;;;;;;;10.30;4.30;;;11.90;1.00;;;;;;5078800;28;20493;-74
2022/10/12 09:04:08;;;;;;;14.30;5.27;;;12.00;1.00;;;;;;5001371;28;20440;-75
2022/10/12 09:07:15;;;;;;;23.27;4.80;;;12.10;1.00;;;;;;5003770;28;20421;-75
2022/10/12 09:10:03;;;;;;;9.90;5.00;;;12.20;1.00;;;;;;5002929;28;20821;-75
2022/10/12 09:12:59;;;;;;;15.37;4.60;;;12.20;1.00;;;;;;5008464;28;20776;-75
2022/10/12 09:16:15;;;;;;;19.53;4.93;;;12.40;1.00;;;;;;4998611;28;20409;-75
2022/10/12 09:18:56;;;;;;;11.40;4.43;;;12.60;1.00;;;;;;5002126;28;20467;-75
2022/10/12 09:21:30;;;;;;;17.10;4.70;;;12.80;1.00;;;;;;5002752;28;20499;-74
2022/10/12 09:23:56;;;;;;;11.60;5.03;;;12.90;1.00;;;;;;5004547;28;20435;-75
2022/10/12 09:26:38;;;;;;;12.30;4.80;;;12.90;1.00;;;;;;4998196;28;20455;-74
2022/10/12 09:29:25;;;;;;;8.57;4.50;;;13.00;1.00;;;;;;5002327;28;20430;-74
2022/10/12 09:32:30;;;;;;;13.43;4.53;;;13.20;1.00;;;;;;5009880;28;20986;-75
2022/10/12 09:35:13;;;;;;;10.43;4.73;;;13.30;1.00;;;;;;4933941;29;20530;-75
2022/10/12 09:38:15;;;;;;;13.33;4.13;;;13.40;1.00;;;;;;4933840;29;20450;-75
2022/10/12 09:41:25;;;;;;;12.73;5.00;;;13.60;1.00;;;;;;5024682;28;20434;-75
2022/10/12 09:43:57;;;;;;;12.10;4.80;;;13.70;1.00;;;;;;5023607;28;20426;-76
2022/10/12 09:46:55;;;;;;;14.93;5.20;;;13.90;1.00;;;;;;5021844;28;20467;-76
2022/10/12 09:49:47;;;;;;;11.23;5.47;;;14.00;1.00;;;;;;5028562;28;20407;-75
2022/10/12 09:52:16;;;;;;;11.40;5.20;;;14.10;1.00;;;;;;5027306;28;20891;-74
2022/10/12 09:54:51;;;;;;;12.10;5.20;;;14.20;1.00;;;;;;5028966;28;20419;-75
2022/10/12 09:57:33;;;;;;;12.20;5.57;;;14.20;1.00;;;;;;5027915;28;20421;-75
2022/10/12 10:00:01;;;;;;;22.90;6.20;;;14.30;1.00;;;;;;5025746;28;20480;-74
2022/10/12 10:02:28;;;;;;;11.63;5.70;;;14.40;1.00;;;;;;5021267;28;20426;-74
2022/10/12 10:04:54;;;;;;;12.80;5.50;;;14.50;1.00;;;;;;5021090;28;20803;-74
2022/10/12 10:07:26;;;;;;;11.37;5.43;;;14.60;1.00;;;;;;5019690;28;20428;-74
2022/10/12 10:10:16;;;;;;;18.67;5.53;;;14.70;1.00;;;;;;5019329;28;20420;-74
2022/10/12 10:12:50;;;;;;;13.80;5.20;;;14.70;1.00;;;;;;5074808;28;20431;-74
2022/10/12 10:15:47;;;;;;;11.37;5.47;;;14.80;1.00;;;;;;5080330;28;20813;-74
2022/10/12 10:18:39;;;;;;;12.27;5.00;;;14.90;1.00;;;;;;5008536;28;20501;-74
2022/10/12 10:21:42;;;;;;;15.97;5.33;;;15.00;1.00;;;;;;5011675;28;20439;-74
2022/10/12 10:24:25;;;;;;;15.40;5.57;;;15.10;1.00;;;;;;4927077;29;20515;-74
2022/10/12 10:27:45;;;;;;;13.50;5.40;;;15.20;1.00;;;;;;4930336;29;20452;-74
2022/10/12 10:30:20;;;;;;;9.27;5.10;;;15.30;1.00;;;;;;4880097;29;20434;-74
2022/10/12 10:32:46;;;;;;;9.43;5.30;;;15.40;1.00;;;;;;4880344;29;20430;-74
2022/10/12 10:35:21;;;;;;;12.67;5.30;;;15.50;1.00;;;;;;4880280;29;20517;-75
2022/10/12 10:37:58;;;;;;;10.93;5.50;;;15.70;1.00;;;;;;4880344;29;20436;-75
2022/10/12 10:40:34;;;;;;;11.37;6.10;;;15.80;1.00;;;;;;4877415;29;20876;-75
2022/10/12 10:43:33;;;;;;;9.20;5.30;;;15.80;1.00;;;;;;4880136;29;20529;-75
2022/10/12 10:46:35;;;;;;;13.33;5.80;;;15.90;1.00;;;;;;4880188;29;20458;-75
2022/10/12 10:49:23;;;;;;;7.90;5.07;;;16.00;1.00;;;;;;4876548;29;21150;-75
2022/10/12 10:51:56;;;;;;;14.40;5.30;;;16.10;1.00;;;;;;4879240;29;20552;-74
2022/10/12 10:54:39;;;;;;;11.40;5.47;;;16.10;1.00;;;;;;4905593;29;20414;-74
2022/10/12 10:57:15;;;;;;;10.07;5.67;;;16.20;1.00;;;;;;4959628;28;20442;-74
2022/10/12 10:59:47;;;;;;;9.17;4.70;;;16.30;1.00;;;;;;5025899;28;20471;-74
2022/10/12 11:02:28;;;;;;;10.40;5.50;;;16.40;1.00;;;;;;5032989;28;20413;-74
2022/10/12 11:05:18;;;;;;;17.30;5.60;;;16.50;1.00;;;;;;5033166;28;20440;-74
2022/10/12 11:07:49;;;;;;;11.47;5.97;;;16.60;1.00;;;;;;5078891;28;20418;-74
2022/10/12 11:10:59;;;;;;;11.47;5.20;;;16.70;1.00;;;;;;5090671;28;20407;-75
2022/10/12 11:14:03;;;;;;;10.40;4.90;;;16.80;1.00;;;;;;5089098;28;20429;-74
2022/10/12 11:16:32;;;;;;;11.70;4.97;;;17.00;1.00;;;;;;5009469;28;20548;-75
2022/10/12 11:19:32;;;;;;;8.00;4.73;;;17.10;1.00;;;;;;5013379;28;20471;-76
2022/10/12 11:22:15;;;;;;;19.70;4.80;;;17.30;1.00;;;;;;5009502;28;20405;-76
2022/10/12 11:24:53;;;;;;;11.80;5.40;;;17.50;1.00;;;;;;5007881;28;20413;-77
2022/10/12 11:27:45;;;;;;;10.20;5.53;;;17.60;1.00;;;;;;5007541;28;20420;-76
2022/10/12 11:30:17;;;;;;;10.60;5.20;;;17.80;1.00;;;;;;5001024;28;20436;-75
2022/10/12 11:32:52;;;;;;;13.20;7.50;;;18.00;1.00;;;;;;5003472;28;20793;-75
2022/10/12 11:35:32;;;;;;;12.90;6.50;;;18.10;1.00;;;;;;5009507;28;20431;-74
2022/10/12 11:38:08;;;;;;;16.80;6.40;;;18.30;1.00;;;;;;5008086;28;20965;-76
2022/10/12 11:40:52;;;;;;;13.60;7.20;;;18.40;1.00;;;;;;5013184;28;20454;-75
2022/10/12 11:43:34;;;;;;;12.80;6.47;;;18.50;1.00;;;;;;5012152;28;20419;-75
2022/10/12 11:46:07;;;;;;;24.97;7.67;;;18.70;1.00;;;;;;5011884;28;20448;-75
2022/10/12 11:48:51;;;;;;;11.10;6.07;;;18.80;1.00;;;;;;5005898;28;20416;-75
2022/10/12 11:51:16;;;;;;;21.53;6.90;;;18.90;1.00;;;;;;5008555;28;20408;-77
2022/10/12 11:54:33;;;;;;;12.53;7.33;;;18.80;1.00;;;;;;5057953;28;20399;-77
2022/10/12 11:57:23;;;;;;;14.03;6.50;;;19.00;1.00;;;;;;5075025;28;20241;-77
2022/10/12 12:00:21;;;;;;;12.57;7.23;;;19.10;1.00;;;;;;5088629;28;20792;-77
2022/10/12 12:03:09;;;;;;;12.03;6.43;;;19.10;1.00;;;;;;5077037;28;20420;-76
2022/10/12 12:06:27;;;;;;;17.03;6.00;;;19.10;1.00;;;;;;5085795;28;20969;-76
2022/10/12 12:09:17;;;;;;;12.80;6.63;;;19.00;1.00;;;;;;5087277;28;20428;-76
2022/10/12 12:11:46;;;;;;;13.23;7.30;;;19.20;1.00;;;;;;5074504;28;20400;-76
2022/10/12 12:14:27;;;;;;;14.97;7.37;;;19.10;1.00;;;;;;5084261;28;20391;-74
2022/10/12 12:17:12;;;;;;;13.87;6.87;;;19.20;1.00;;;;;;5074372;28;20732;-74
2022/10/12 12:19:54;;;;;;;13.00;6.60;;;19.20;1.00;;;;;;5082569;28;20487;-77
2022/10/12 12:22:49;;;;;;;15.07;7.40;;;19.30;1.00;;;;;;5077036;28;20390;-76
2022/10/12 12:25:29;;;;;;;10.33;6.63;;;19.30;1.00;;;;;;5089621;28;20478;-76
2022/10/12 12:28:05;;;;;;;18.80;7.03;;;19.50;1.00;;;;;;5084548;28;20418;-75
2022/10/12 12:30:37;;;;;;;17.07;6.80;;;19.70;1.00;;;;;;5086632;28;20416;-76
2022/10/12 12:33:27;;;;;;;21.20;6.90;;;19.70;1.00;;;;;;5076409;28;20446;-76
2022/10/12 12:36:07;;;;;;;16.57;6.87;;;19.70;1.00;;;;;;5080998;28;20413;-75
2022/10/12 12:38:53;;;;;;;12.30;7.87;;;20.00;1.00;;;;;;5073871;28;20431;-75
2022/10/12 12:41:44;;;;;;;18.40;7.87;;;20.20;1.00;;;;;;5084104;28;20438;-75
2022/10/12 12:44:32;;;;;;;13.17;7.50;;;20.40;1.00;;;;;;5080514;28;20981;-75
2022/10/12 12:47:01;;;;;;;19.60;8.10;;;20.50;1.00;;;;;;5074447;28;20414;-75
2022/10/12 12:49:49;;;;;;;11.97;6.97;;;20.60;1.00;;;;;;5088664;28;20424;-75
2022/10/12 12:52:38;;;;;;;20.77;8.17;;;20.70;1.00;;;;;;5094095;28;20393;-77
2022/10/12 12:55:18;;;;;;;18.13;7.20;;;20.70;1.00;;;;;;5077250;28;20402;-76
2022/10/12 12:58:39;;;;;;;15.37;7.23;;;20.80;1.00;;;;;;5081395;28;21004;-76
2022/10/12 13:01:31;;;;;;;14.83;6.30;;;21.00;1.00;;;;;;5090186;28;20470;-76
2022/10/12 13:04:30;;;;;;;14.00;6.67;;;20.90;1.00;;;;;;5006620;28;20453;-76
2022/10/12 13:07:21;;;;;;;13.23;7.60;;;20.90;1.00;;;;;;5005171;28;20425;-77
2022/10/12 13:09:59;;;;;;;16.90;8.10;;;20.90;1.00;;;;;;5007035;28;20424;-76
2022/10/12 13:12:55;;;;;;;16.17;7.37;;;20.70;1.00;;;;;;5010579;28;20436;-76
2022/10/12 13:15:34;;;;;;;14.00;7.53;;;20.80;1.00;;;;;;5000410;28;20429;-76
2022/10/12 13:18:18;;;;;;;15.10;6.70;;;20.80;1.00;;;;;;5014541;28;20926;-75
2022/10/12 13:21:04;;;;;;;17.60;6.80;;;20.80;1.00;;;;;;5014702;28;21125;-76
2022/10/12 13:23:35;;;;;;;11.60;6.53;;;20.80;1.00;;;;;;5013483;28;20447;-77
2022/10/12 13:26:08;;;;;;;16.57;8.40;;;21.00;1.00;;;;;;4985388;28;20463;-77
2022/10/12 13:29:06;;;;;;;18.83;7.47;;;20.90;1.00;;;;;;5014242;28;20423;-78
2022/10/12 13:31:53;;;;;;;15.73;7.27;;;20.90;1.00;;;;;;4997520;28;20492;-77
2022/10/12 13:34:28;;;;;;;14.33;6.67;;;21.10;1.00;;;;;;5002021;28;20956;-77
2022/10/12 13:37:09;;;;;;;18.37;7.17;;;21.10;1.00;;;;;;5010374;28;20454;-78
2022/10/12 13:39:57;;;;;;;16.87;7.83;;;21.00;1.00;;;;;;5004320;28;20472;-76
2022/10/12 13:46:11;;;;;;;19.67;7.80;;;21.00;1.00;;;;;;5079724;28;20380;-77
2022/10/12 13:49:15;;;;;;;18.60;7.63;;;20.90;1.00;;;;;;5078481;28;20391;-77
2022/10/12 13:52:12;;;;;;;15.53;7.13;;;20.80;1.00;;;;;;5097210;28;20401;-76
2022/10/12 13:54:47;;;;;;;21.03;7.83;;;20.70;1.00;;;;;;5005974;28;20421;-78
2022/10/12 13:58:03;;;;;;;12.10;6.27;;;20.70;1.00;;;;;;4995224;28;20945;-77
2022/10/12 14:04:15;;;;;;;13.90;7.17;;;20.60;1.00;;;;;;5007534;28;20426;-77
2022/10/12 14:10:11;;;;;;;16.20;7.20;;;20.70;1.00;;;;;;4998596;28;20925;-74
2022/10/12 14:12:53;;;;;;;18.57;8.37;;;20.70;1.00;;;;;;5014204;28;20840;-77
2022/10/12 14:15:24;;;;;;;17.10;6.77;;;20.60;1.00;;;;;;5004272;28;20423;-77
2022/10/12 14:17:51;;;;;;;17.93;7.60;;;20.40;1.00;;;;;;5008105;28;20428;-76
2022/10/12 14:20:51;;;;;;;11.73;6.57;;;20.40;1.00;;;;;;4994651;28;20947;-77
2022/10/12 14:23:34;;;;;;;21.03;7.43;;;20.30;1.00;;;;;;5006931;28;20435;-77
2022/10/12 14:29:43;;;;;;;13.60;6.30;;;20.10;1.00;;;;;;5009715;28;20425;-77
2022/10/12 14:32:33;;;;;;;12.77;7.50;;;19.80;1.00;;;;;;5071374;28;20435;-77
2022/10/12 14:35:17;;;;;;;16.07;7.60;;;19.50;1.00;;;;;;5075856;28;20420;-77
2022/10/12 14:37:58;;;;;;;16.87;6.80;;;19.30;1.00;;;;;;5089138;28;20927;-76
2022/10/12 14:40:37;;;;;;;16.37;6.77;;;19.10;1.00;;;;;;5077216;28;20783;-76
2022/10/12 14:43:08;;;;;;;9.80;5.97;;;18.90;1.00;;;;;;5086364;28;20416;-75
2022/10/12 14:45:34;;;;;;;18.10;8.47;;;18.90;1.00;;;;;;5074053;28;21105;-75
2022/10/12 14:48:11;;;;;;;15.80;7.73;;;18.90;1.00;;;;;;5089570;28;20412;-76
2022/10/12 14:50:37;;;;;;;13.40;6.27;;;19.00;1.00;;;;;;5089752;28;20407;-76
2022/10/12 14:53:08;;;;;;;19.70;7.60;;;19.10;1.00;;;;;;5080333;28;20537;-75
2022/10/12 14:55:34;;;;;;;15.17;6.93;;;19.30;1.00;;;;;;5085733;28;20637;-75
2022/10/12 14:58:00;;;;;;;12.40;7.13;;;19.20;1.00;;;;;;5083934;28;20422;-77
2022/10/12 15:00:27;;;;;;;14.70;7.40;;;19.30;1.00;;;;;;5089228;28;20197;-76
2022/10/12 15:02:58;;;;;;;21.40;8.50;;;19.30;1.00;;;;;;5082582;28;20983;-76
2022/10/12 15:05:34;;;;;;;14.73;7.03;;;19.40;1.00;;;;;;5090677;28;20778;-75
2022/10/12 15:08:10;;;;;;;14.03;7.10;;;19.40;1.00;;;;;;5085619;28;20420;-75
2022/10/12 15:10:50;;;;;;;19.47;8.17;;;19.50;1.00;;;;;;5084605;28;20460;-75
2022/10/12 15:13:28;;;;;;;16.90;7.37;;;19.50;1.00;;;;;;5080371;28;20496;-75
2022/10/12 15:16:13;;;;;;;34.23;7.13;;;19.50;1.00;;;;;;5086391;28;20883;-75
2022/10/12 15:18:40;;;;;;;20.27;7.03;;;19.50;1.00;;;;;;5074947;28;20525;-75
2022/10/12 15:21:17;;;;;;;16.53;7.90;;;19.50;1.00;;;;;;5077268;28;20409;-76
2022/10/12 15:23:43;;;;;;;18.40;8.00;;;19.40;1.00;;;;;;5086671;28;20435;-75
2022/10/12 15:26:17;;;;;;;16.17;6.80;;;19.30;1.00;;;;;;5087264;28;20419;-75
2022/10/12 15:28:43;;;;;;;15.37;7.50;;;19.30;1.00;;;;;;5075140;28;20403;-76
2022/10/12 15:31:14;;;;;;;17.33;6.43;;;19.20;1.00;;;;;;5088613;28;20821;-76
2022/10/12 15:34:21;;;;;;;14.73;6.90;;;19.10;1.00;;;;;;5082568;28;20511;-76
2022/10/12 15:37:15;;;;;;;13.63;6.60;;;19.00;1.00;;;;;;5075290;28;20428;-76
2022/10/12 15:39:46;;;;;;;21.43;6.53;;;18.90;1.00;;;;;;5077262;28;20495;-76
2022/10/12 15:42:46;;;;;;;10.57;6.90;;;18.70;1.00;;;;;;5097931;28;20758;-75
2022/10/12 15:45:19;;;;;;;14.23;7.20;;;18.60;1.00;;;;;;5087952;28;20549;-76
2022/10/12 15:48:09;;;;;;;16.80;7.50;;;18.50;1.00;;;;;;5086468;28;20379;-75
2022/10/12 15:50:52;;;;;;;15.47;6.90;;;18.50;1.00;;;;;;5078517;28;20457;-74
2022/10/12 15:53:22;;;;;;;14.07;6.83;;;18.40;1.00;;;;;;5086942;28;20938;-75
2022/10/12 15:56:10;;;;;;;16.33;6.60;;;18.30;1.00;;;;;;5079415;28;20895;-77
2022/10/12 15:58:46;;;;;;;15.10;6.83;;;18.20;1.00;;;;;;5087889;28;20459;-76
2022/10/12 16:01:28;;;;;;;15.00;6.40;;;18.10;1.00;;;;;;5080652;28;20414;-78
2022/10/12 16:04:33;;;;;;;15.30;6.60;;;18.00;1.00;;;;;;5093164;28;20842;-77
2022/10/12 16:07:04;;;;;;;16.30;6.90;;;17.80;1.00;;;;;;5075171;28;20410;-77
2022/10/12 16:09:29;;;;;;;20.67;6.30;;;17.70;1.00;;;;;;5089211;28;20420;-76
2022/10/12 16:12:33;;;;;;;14.27;6.80;;;17.50;1.00;;;;;;5080543;28;20905;-77
2022/10/12 16:14:59;;;;;;;13.70;7.00;;;17.40;1.00;;;;;;5076643;28;20670;-74
2022/10/12 16:17:24;;;;;;;9.90;6.23;;;17.20;1.00;;;;;;5083751;28;20420;-74
2022/10/12 16:19:50;;;;;;;17.83;7.30;;;17.10;1.00;;;;;;5089523;28;20203;-73
2022/10/12 16:22:51;;;;;;;11.00;6.90;;;16.90;1.00;;;;;;5094450;28;20648;-75
2022/10/12 16:25:23;;;;;;;15.13;7.77;;;16.80;1.00;;;;;;5092347;28;20175;-74
2022/10/12 16:28:22;;;;;;;21.40;7.97;;;16.70;1.00;;;;;;5088920;28;20391;-74
2022/10/12 16:31:21;;;;;;;16.33;8.03;;;16.60;1.00;;;;;;5086111;28;20391;-75
2022/10/12 16:33:58;;;;;;;17.27;7.73;;;16.50;1.00;;;;;;5074065;28;20362;-75
2022/10/12 16:36:23;;;;;;;16.13;7.17;;;16.40;1.00;;;;;;5091292;28;20764;-78
2022/10/12 16:39:15;;;;;;;15.00;7.17;;;16.20;1.00;;;;;;5087813;28;20448;-76
2022/10/12 16:41:52;;;;;;;12.50;7.07;;;16.10;1.00;;;;;;5073908;28;20163;-76
2022/10/12 16:44:34;;;;;;;16.50;7.87;;;16.00;1.00;;;;;;5073653;28;20378;-76
2022/10/12 16:47:04;;;;;;;21.50;7.77;;;15.90;1.00;;;;;;5073525;28;20388;-78
2022/10/12 16:49:52;;;;;;;16.87;7.80;;;15.80;1.00;;;;;;5079179;28;20408;-77
2022/10/12 16:52:23;;;;;;;20.53;7.10;;;15.60;1.00;;;;;;5085968;28;20469;-76
2022/10/12 16:55:05;;;;;;;23.63;7.80;;;15.60;1.00;;;;;;5083396;28;20420;-75
2022/10/12 16:57:40;;;;;;;13.40;8.10;;;15.50;1.00;;;;;;5079376;28;20421;-77
2022/10/12 17:00:13;;;;;;;24.60;7.43;;;15.40;1.00;;;;;;5086426;28;20431;-76
2022/10/12 17:02:39;;;;;;;14.53;7.10;;;15.40;1.00;;;;;;5090029;28;20451;-77
2022/10/12 17:05:34;;;;;;;23.07;7.70;;;15.40;1.00;;;;;;5081896;28;20933;-77
2022/10/12 17:07:59;;;;;;;19.60;7.17;;;15.30;1.00;;;;;;5073217;28;20404;-76
2022/10/12 17:10:25;;;;;;;18.80;7.40;;;15.30;1.00;;;;;;5075666;28;20483;-75